FOOG

Port Gentil Airport

Port Gentil, Gabon
TAF FOOG 212300Z 2200/2224 22007KT 9999 SCT008 FEW020CB BKN030 PROB30 TEMPO 2202/2208 4000 TSRA BKN006 FEW016CB OVC026
Issued Valid From Valid To
Jan-21 @ 23:00 UTC
(an hour ago)
Jan-22 @ 00:00 UTC
(10 minutes ago)
Jan-23 @ 00:00 UTC
(in 24 hours)
Jan-22 @ 00:00 to Jan-23 @ 00:00
TAF FOOG 212300Z 2200/2224 22007KT 9999 SCT008 FEW020CB BKN030
Wind Visibility Clouds
220° at 7 knots 10,000+ meters
  • Scattered at 800' AGL
  • Few at 2,000' AGL
  • Broken at 3,000' AGL
Temporary  (Probability 30%) Jan-22 @ 02:00 to Jan-22 @ 08:00
PROB30 TEMPO 2202/2208 4000 TSRA BKN006 FEW016CB OVC026
Visibility Clouds Conditions
4,007 meters
  • Broken at 600' AGL
  • Few at 1,600' AGL
  • Overcast at 2,600' AGL
  • Thunderstorm
  • Rain
TAF FOOG 212300Z 2200/2224 22007KT 9999 SCT008 FEW020CB BKN030 PROB30 TEMPO 2202/2208 4000 TSRA BKN006 FEW016CB OVC026
Issued Jan-21 @ 23:00 UTC
(an hour ago)
Valid From Jan-22 @ 00:00 UTC
(10 minutes ago)
Valid To Jan-23 @ 00:00 UTC
(in 24 hours)
Jan-22 @ 00:00 - Jan-23 @ 00:00
Wind Visibility
220° at 7 knots 10,000+ meters
Clouds
  • Scattered at 800' AGL
  • Few at 2,000' AGL
  • Broken at 3,000' AGL
Probability 30% Temporary Jan-22 @ 02:00 - Jan-22 @ 08:00
Clouds
  • Broken at 600' AGL
  • Few at 1,600' AGL
  • Overcast at 2,600' AGL
Conditions
  • Thunderstorm
  • Rain